Sukran S — TCKB — position and weather

sailwx.info

Track history (hours):
 
Tides and Currents Weather Stations Pressure Air Temp Water Temp Dewpoint Dewpoint Depression Visibility Wind Speed Wind Dir Waves Ship Positions

Sukran S

Last reported at 2016-Jun-24 07:33 UTC. Time now 2016-Jun-30 12:23 UTC.
Position N 36°18' E 034°38'.

Length 108 m; draft 4 m.

Type: Cargo ship. MMSI: 271000056.

Date/timePositionNaut miles runAvg speedWind from/ knotsBaromVisibWave heightAir tempDewpointWater temp
2016-Jun-24 07:33N 36°18' E 034°38'69 6.7
2016-Jun-23 21:18N 36°50' E 035°54'0 0.0
2016-Jun-23 16:17N 36°50' E 035°54'0 0.0
2016-Jun-23 15:16N 36°50' E 035°54'0 0.0
2016-Jun-23 13:07N 36°50' E 035°54'0 0.0
2016-Jun-23 12:22N 36°50' E 035°54'0 0.0
2016-Jun-23 11:30N 36°50' E 035°54'0 0.0
2016-Jun-23 10:26N 36°50' E 035°54'0 0.0
2016-Jun-23 09:10N 36°50' E 035°54'0 0.0
2016-Jun-23 07:32N 36°50' E 035°54'0 0.0
2016-Jun-22 19:15N 36°50' E 035°54'0 0.0
2016-Jun-22 17:23N 36°50' E 035°54'0 0.0
2016-Jun-22 16:27N 36°50' E 035°54'0 0.0
2016-Jun-22 14:19N 36°50' E 035°54'0 0.0
2016-Jun-22 13:32N 36°50' E 035°54'0 0.0
2016-Jun-22 12:30N 36°50' E 035°54'0 0.0
2016-Jun-22 11:31N 36°50' E 035°54'0 0.0
2016-Jun-22 10:31N 36°50' E 035°54'0 0.0
2016-Jun-22 09:33N 36°50' E 035°54'0 0.0
2016-Jun-22 08:31N 36°50' E 035°54'0 0.0
2016-Jun-22 07:33N 36°50' E 035°54'0 0.0
2016-Jun-22 05:34N 36°50' E 035°54'15 0.5
2016-Jun-21 02:31N 36°36' E 035°48'10 9.8
2016-Jun-21 01:33N 36°30' E 035°39'1410.3
2016-Jun-21 00:13N 36°20' E 035°27'2810.5
2016-Jun-20 21:34N 36°00' E 035°03'1110.8
2016-Jun-20 20:33N 35°52' E 034°54'2711.1
2016-Jun-20 18:10N 35°34' E 034°31'710.9
2016-Jun-20 17:31N 35°29' E 034°24'1010.6
2016-Jun-20 16:33N 35°23' E 034°14'1110.5
2016-Jun-20 15:33N 35°16' E 034°04'  
2016-Jun-14 13:22N 35°10' E 033°57'0 0.1
2016-Jun-14 12:17N 35°10' E 033°57'0 0.0
2016-Jun-14 08:11N 35°10' E 033°57'  
Track history (hours):
 
Tides and Currents Weather Stations Pressure Air Temp Water Temp Dewpoint Dewpoint Depression Visibility Wind Speed Wind Dir Waves Ship Positions

Sukran S

Last reported at 2016-Jun-24 07:33 UTC. Time now 2016-Jun-30 12:23 UTC.
Position N 36°18' E 034°38'.

Length 108 m; draft 4 m.

Type: Cargo ship. MMSI: 271000056.

Date/timePositionNaut miles runAvg speedWind from/ knotsBaromVisibWave heightAir tempDewpointWater temp
2016-Jun-24 07:33N 36°18' E 034°38'69 6.7
2016-Jun-23 21:18N 36°50' E 035°54'0 0.0
2016-Jun-23 16:17N 36°50' E 035°54'0 0.0
2016-Jun-23 15:16N 36°50' E 035°54'0 0.0
2016-Jun-23 13:07N 36°50' E 035°54'0 0.0
2016-Jun-23 12:22N 36°50' E 035°54'0 0.0
2016-Jun-23 11:30N 36°50' E 035°54'0 0.0
2016-Jun-23 10:26N 36°50' E 035°54'0 0.0
2016-Jun-23 09:10N 36°50' E 035°54'0 0.0
2016-Jun-23 07:32N 36°50' E 035°54'0 0.0
2016-Jun-22 19:15N 36°50' E 035°54'0 0.0
2016-Jun-22 17:23N 36°50' E 035°54'0 0.0
2016-Jun-22 16:27N 36°50' E 035°54'0 0.0
2016-Jun-22 14:19N 36°50' E 035°54'0 0.0
2016-Jun-22 13:32N 36°50' E 035°54'0 0.0
2016-Jun-22 12:30N 36°50' E 035°54'0 0.0
2016-Jun-22 11:31N 36°50' E 035°54'0 0.0
2016-Jun-22 10:31N 36°50' E 035°54'0 0.0
2016-Jun-22 09:33N 36°50' E 035°54'0 0.0
2016-Jun-22 08:31N 36°50' E 035°54'0 0.0
2016-Jun-22 07:33N 36°50' E 035°54'0 0.0
2016-Jun-22 05:34N 36°50' E 035°54'15 0.5
2016-Jun-21 02:31N 36°36' E 035°48'10 9.8
2016-Jun-21 01:33N 36°30' E 035°39'1410.3
2016-Jun-21 00:13N 36°20' E 035°27'2810.5
2016-Jun-20 21:34N 36°00' E 035°03'1110.8
2016-Jun-20 20:33N 35°52' E 034°54'2711.1
2016-Jun-20 18:10N 35°34' E 034°31'710.9
2016-Jun-20 17:31N 35°29' E 034°24'1010.6
2016-Jun-20 16:33N 35°23' E 034°14'1110.5
2016-Jun-20 15:33N 35°16' E 034°04'  
2016-Jun-14 13:22N 35°10' E 033°57'0 0.1
2016-Jun-14 12:17N 35°10' E 033°57'0 0.0
2016-Jun-14 08:11N 35°10' E 033°57'  

Dump ship's entire track history